sensor_id;sensor_type;location;lat;lon;timestamp;temperature;humidity
43089;DHT22;28709;52.030;5.652;2022-09-09T00:02:15;14.70;99.90
43089;DHT22;28709;52.030;5.652;2022-09-09T00:07:31;14.70;99.90
43089;DHT22;28709;52.030;5.652;2022-09-09T00:15:11;14.70;99.90
43089;DHT22;28709;52.030;5.652;2022-09-09T00:18:05;14.70;99.90
43089;DHT22;28709;52.030;5.652;2022-09-09T00:20:36;14.70;99.90
43089;DHT22;28709;52.030;5.652;2022-09-09T00:28:26;14.80;99.90
43089;DHT22;28709;52.030;5.652;2022-09-09T00:30:52;14.70;99.90
43089;DHT22;28709;52.030;5.652;2022-09-09T00:33:21;14.70;99.90
43089;DHT22;28709;52.030;5.652;2022-09-09T00:35:59;14.80;99.90
43089;DHT22;28709;52.030;5.652;2022-09-09T00:38:36;14.70;99.90
43089;DHT22;28709;52.030;5.652;2022-09-09T00:41:09;14.70;99.90
43089;DHT22;28709;52.030;5.652;2022-09-09T00:43:37;14.70;99.90
43089;DHT22;28709;52.030;5.652;2022-09-09T00:57:29;14.60;99.90
43089;DHT22;28709;52.030;5.652;2022-09-09T01:00:31;14.60;99.90
43089;DHT22;28709;52.030;5.652;2022-09-09T01:05:39;14.60;99.90
43089;DHT22;28709;52.030;5.652;2022-09-09T01:08:20;14.50;99.90
43089;DHT22;28709;52.030;5.652;2022-09-09T01:10:52;14.50;99.90
43089;DHT22;28709;52.030;5.652;2022-09-09T01:13:30;14.50;99.90
43089;DHT22;28709;52.030;5.652;2022-09-09T01:16:01;14.50;99.90
43089;DHT22;28709;52.030;5.652;2022-09-09T01:18:35;14.50;99.90
43089;DHT22;28709;52.030;5.652;2022-09-09T01:28:49;14.50;99.90
43089;DHT22;28709;52.030;5.652;2022-09-09T01:31:31;14.50;99.90
43089;DHT22;28709;52.030;5.652;2022-09-09T01:33:58;14.40;99.90
43089;DHT22;28709;52.030;5.652;2022-09-09T01:36:33;14.40;99.90
43089;DHT22;28709;52.030;5.652;2022-09-09T01:39:01;14.40;99.90
43089;DHT22;28709;52.030;5.652;2022-09-09T01:41:27;14.40;99.90
43089;DHT22;28709;52.030;5.652;2022-09-09T01:43:54;14.40;99.90
43089;DHT22;28709;52.030;5.652;2022-09-09T01:46:22;14.40;99.90
43089;DHT22;28709;52.030;5.652;2022-09-09T01:48:52;14.40;99.90
43089;DHT22;28709;52.030;5.652;2022-09-09T01:51:18;14.40;99.90
43089;DHT22;28709;52.030;5.652;2022-09-09T01:53:45;14.30;99.90
43089;DHT22;28709;52.030;5.652;2022-09-09T02:04:43;14.20;99.90
43089;DHT22;28709;52.030;5.652;2022-09-09T02:10:03;14.20;99.90
43089;DHT22;28709;52.030;5.652;2022-09-09T02:12:31;14.20;99.90
43089;DHT22;28709;52.030;5.652;2022-09-09T02:15:03;14.20;99.90
43089;DHT22;28709;52.030;5.652;2022-09-09T02:17:34;14.10;99.90
43089;DHT22;28709;52.030;5.652;2022-09-09T02:20:11;14.10;99.90
43089;DHT22;28709;52.030;5.652;2022-09-09T02:22:40;14.10;99.90
43089;DHT22;28709;52.030;5.652;2022-09-09T02:25:09;14.10;99.90
43089;DHT22;28709;52.030;5.652;2022-09-09T02:27:36;14.10;99.90
43089;DHT22;28709;52.030;5.652;2022-09-09T02:30:03;14.10;99.90
43089;DHT22;28709;52.030;5.652;2022-09-09T02:32:31;14.00;99.90
43089;DHT22;28709;52.030;5.652;2022-09-09T02:35:07;14.00;99.90
43089;DHT22;28709;52.030;5.652;2022-09-09T02:37:42;14.00;99.90
43089;DHT22;28709;52.030;5.652;2022-09-09T02:40:10;14.00;99.90
43089;DHT22;28709;52.030;5.652;2022-09-09T02:42:46;14.00;99.90
43089;DHT22;28709;52.030;5.652;2022-09-09T02:45:14;14.00;99.90
43089;DHT22;28709;52.030;5.652;2022-09-09T02:50:35;14.00;99.90
43089;DHT22;28709;52.030;5.652;2022-09-09T02:53:17;14.00;99.90
43089;DHT22;28709;52.030;5.652;2022-09-09T02:55:54;13.90;99.90
43089;DHT22;28709;52.030;5.652;2022-09-09T02:58:22;13.90;99.90
43089;DHT22;28709;52.030;5.652;2022-09-09T03:00:50;13.90;99.90
43089;DHT22;28709;52.030;5.652;2022-09-09T03:03:17;13.90;99.90
43089;DHT22;28709;52.030;5.652;2022-09-09T03:05:44;13.90;99.90
43089;DHT22;28709;52.030;5.652;2022-09-09T03:08:10;13.80;99.90
43089;DHT22;28709;52.030;5.652;2022-09-09T03:10:35;13.80;99.90
43089;DHT22;28709;52.030;5.652;2022-09-09T03:13:03;13.80;99.90
43089;DHT22;28709;52.030;5.652;2022-09-09T03:15:31;13.80;99.90
43089;DHT22;28709;52.030;5.652;2022-09-09T03:17:58;13.80;99.90
43089;DHT22;28709;52.030;5.652;2022-09-09T03:20:25;13.80;99.90
43089;DHT22;28709;52.030;5.652;2022-09-09T03:22:52;13.80;99.90
43089;DHT22;28709;52.030;5.652;2022-09-09T03:25:17;13.80;99.90
43089;DHT22;28709;52.030;5.652;2022-09-09T03:27:43;13.80;99.90
43089;DHT22;28709;52.030;5.652;2022-09-09T03:30:09;13.80;99.90
43089;DHT22;28709;52.030;5.652;2022-09-09T03:32:35;13.70;99.90
43089;DHT22;28709;52.030;5.652;2022-09-09T03:35:01;13.80;99.90
43089;DHT22;28709;52.030;5.652;2022-09-09T03:37:26;13.80;99.90
43089;DHT22;28709;52.030;5.652;2022-09-09T03:39:52;13.80;99.90
43089;DHT22;28709;52.030;5.652;2022-09-09T03:42:20;13.70;99.90
43089;DHT22;28709;52.030;5.652;2022-09-09T03:44:46;13.70;99.90
43089;DHT22;28709;52.030;5.652;2022-09-09T03:47:17;13.80;99.90
43089;DHT22;28709;52.030;5.652;2022-09-09T03:49:43;13.80;99.90
43089;DHT22;28709;52.030;5.652;2022-09-09T03:52:09;13.80;99.90
43089;DHT22;28709;52.030;5.652;2022-09-09T03:54:35;13.80;99.90
43089;DHT22;28709;52.030;5.652;2022-09-09T03:57:01;13.80;99.90
43089;DHT22;28709;52.030;5.652;2022-09-09T03:59:27;13.80;99.90
43089;DHT22;28709;52.030;5.652;2022-09-09T04:01:53;13.80;99.90
43089;DHT22;28709;52.030;5.652;2022-09-09T04:04:20;13.80;99.90
43089;DHT22;28709;52.030;5.652;2022-09-09T04:06:46;13.80;99.90
43089;DHT22;28709;52.030;5.652;2022-09-09T04:09:13;13.80;99.90
43089;DHT22;28709;52.030;5.652;2022-09-09T04:11:39;13.80;99.90
43089;DHT22;28709;52.030;5.652;2022-09-09T04:14:05;13.80;99.90
43089;DHT22;28709;52.030;5.652;2022-09-09T04:16:32;13.80;99.90
43089;DHT22;28709;52.030;5.652;2022-09-09T04:18:58;13.80;99.90
43089;DHT22;28709;52.030;5.652;2022-09-09T04:21:25;13.80;99.90
43089;DHT22;28709;52.030;5.652;2022-09-09T04:23:51;13.80;99.90
43089;DHT22;28709;52.030;5.652;2022-09-09T04:26:17;13.80;99.90
43089;DHT22;28709;52.030;5.652;2022-09-09T04:28:42;13.80;99.90
43089;DHT22;28709;52.030;5.652;2022-09-09T04:31:16;13.80;99.90
43089;DHT22;28709;52.030;5.652;2022-09-09T04:33:43;13.90;99.90
43089;DHT22;28709;52.030;5.652;2022-09-09T04:36:09;13.90;99.90
43089;DHT22;28709;52.030;5.652;2022-09-09T04:38:34;13.90;99.90
43089;DHT22;28709;52.030;5.652;2022-09-09T04:41:00;13.90;99.90
43089;DHT22;28709;52.030;5.652;2022-09-09T04:43:26;13.90;99.90
43089;DHT22;28709;52.030;5.652;2022-09-09T04:45:56;13.90;99.90
43089;DHT22;28709;52.030;5.652;2022-09-09T04:48:22;13.90;99.90
43089;DHT22;28709;52.030;5.652;2022-09-09T04:50:59;14.00;99.90
43089;DHT22;28709;52.030;5.652;2022-09-09T04:53:25;14.00;99.90
43089;DHT22;28709;52.030;5.652;2022-09-09T04:56:11;14.00;99.90
43089;DHT22;28709;52.030;5.652;2022-09-09T04:58:38;14.00;99.90
43089;DHT22;28709;52.030;5.652;2022-09-09T05:01:20;14.00;99.90
43089;DHT22;28709;52.030;5.652;2022-09-09T05:03:47;14.00;99.90
43089;DHT22;28709;52.030;5.652;2022-09-09T05:06:17;14.00;99.90
43089;DHT22;28709;52.030;5.652;2022-09-09T05:08:44;14.10;99.90
43089;DHT22;28709;52.030;5.652;2022-09-09T05:11:22;14.10;99.90
43089;DHT22;28709;52.030;5.652;2022-09-09T05:13:50;14.10;99.90
43089;DHT22;28709;52.030;5.652;2022-09-09T05:16:16;14.10;99.90
43089;DHT22;28709;52.030;5.652;2022-09-09T05:18:43;14.20;99.90
43089;DHT22;28709;52.030;5.652;2022-09-09T05:21:10;14.20;99.90
43089;DHT22;28709;52.030;5.652;2022-09-09T05:23:36;14.30;99.90
43089;DHT22;28709;52.030;5.652;2022-09-09T05:26:03;14.30;99.90
43089;DHT22;28709;52.030;5.652;2022-09-09T05:28:29;14.40;99.90
43089;DHT22;28709;52.030;5.652;2022-09-09T05:31:00;14.40;99.90
43089;DHT22;28709;52.030;5.652;2022-09-09T05:33:26;14.40;99.90
43089;DHT22;28709;52.030;5.652;2022-09-09T05:35:59;14.50;99.90
43089;DHT22;28709;52.030;5.652;2022-09-09T05:38:27;14.50;99.90
43089;DHT22;28709;52.030;5.652;2022-09-09T05:40:53;14.50;99.90
43089;DHT22;28709;52.030;5.652;2022-09-09T05:43:22;14.60;99.90
43089;DHT22;28709;52.030;5.652;2022-09-09T05:45:48;14.60;99.90
43089;DHT22;28709;52.030;5.652;2022-09-09T05:48:14;14.60;99.90
43089;DHT22;28709;52.030;5.652;2022-09-09T05:50:43;14.60;99.90
43089;DHT22;28709;52.030;5.652;2022-09-09T05:53:10;14.60;99.90
43089;DHT22;28709;52.030;5.652;2022-09-09T05:55:36;14.60;99.90
43089;DHT22;28709;52.030;5.652;2022-09-09T05:58:02;14.70;99.90
43089;DHT22;28709;52.030;5.652;2022-09-09T06:00:28;14.70;99.90
43089;DHT22;28709;52.030;5.652;2022-09-09T06:02:54;14.70;99.90
43089;DHT22;28709;52.030;5.652;2022-09-09T06:05:20;14.70;99.90
43089;DHT22;28709;52.030;5.652;2022-09-09T06:07:48;14.70;99.90
43089;DHT22;28709;52.030;5.652;2022-09-09T06:10:17;14.70;99.90
43089;DHT22;28709;52.030;5.652;2022-09-09T06:12:43;14.80;99.90
43089;DHT22;28709;52.030;5.652;2022-09-09T06:15:09;14.80;99.90
43089;DHT22;28709;52.030;5.652;2022-09-09T06:17:34;14.90;99.90
43089;DHT22;28709;52.030;5.652;2022-09-09T06:20:00;14.90;99.90
43089;DHT22;28709;52.030;5.652;2022-09-09T06:22:25;15.00;99.90
43089;DHT22;28709;52.030;5.652;2022-09-09T06:24:51;15.10;99.90
43089;DHT22;28709;52.030;5.652;2022-09-09T06:27:18;15.10;99.90
43089;DHT22;28709;52.030;5.652;2022-09-09T06:29:44;15.20;99.90
43089;DHT22;28709;52.030;5.652;2022-09-09T06:32:10;15.20;99.90
43089;DHT22;28709;52.030;5.652;2022-09-09T06:34:35;15.20;99.90
43089;DHT22;28709;52.030;5.652;2022-09-09T06:37:02;15.20;99.90
43089;DHT22;28709;52.030;5.652;2022-09-09T06:39:28;15.20;99.90
43089;DHT22;28709;52.030;5.652;2022-09-09T06:41:53;15.30;99.90
43089;DHT22;28709;52.030;5.652;2022-09-09T06:44:19;15.40;99.90
43089;DHT22;28709;52.030;5.652;2022-09-09T06:46:45;15.40;99.90
43089;DHT22;28709;52.030;5.652;2022-09-09T06:49:13;15.50;99.90
43089;DHT22;28709;52.030;5.652;2022-09-09T06:51:39;15.50;99.90
43089;DHT22;28709;52.030;5.652;2022-09-09T06:54:08;15.70;99.90
43089;DHT22;28709;52.030;5.652;2022-09-09T06:56:36;15.70;99.90
43089;DHT22;28709;52.030;5.652;2022-09-09T06:59:06;15.80;99.90
43089;DHT22;28709;52.030;5.652;2022-09-09T07:01:36;15.90;99.90
43089;DHT22;28709;52.030;5.652;2022-09-09T07:04:03;15.90;99.90
43089;DHT22;28709;52.030;5.652;2022-09-09T07:06:38;16.00;99.90
43089;DHT22;28709;52.030;5.652;2022-09-09T07:09:06;16.20;99.90
43089;DHT22;28709;52.030;5.652;2022-09-09T07:11:38;16.30;99.90
43089;DHT22;28709;52.030;5.652;2022-09-09T07:14:04;16.40;99.90
43089;DHT22;28709;52.030;5.652;2022-09-09T07:16:29;16.50;99.90
43089;DHT22;28709;52.030;5.652;2022-09-09T07:18:57;16.50;99.90
43089;DHT22;28709;52.030;5.652;2022-09-09T07:21:26;16.60;99.90
43089;DHT22;28709;52.030;5.652;2022-09-09T07:23:53;16.70;99.90
43089;DHT22;28709;52.030;5.652;2022-09-09T07:26:21;16.80;99.90
43089;DHT22;28709;52.030;5.652;2022-09-09T07:28:48;16.70;99.90
43089;DHT22;28709;52.030;5.652;2022-09-09T07:31:19;16.80;99.90
43089;DHT22;28709;52.030;5.652;2022-09-09T07:33:46;16.70;99.90
43089;DHT22;28709;52.030;5.652;2022-09-09T07:36:17;16.70;99.90
43089;DHT22;28709;52.030;5.652;2022-09-09T07:38:45;16.60;99.90
43089;DHT22;28709;52.030;5.652;2022-09-09T07:41:14;16.60;99.90
43089;DHT22;28709;52.030;5.652;2022-09-09T07:43:41;16.60;99.90
43089;DHT22;28709;52.030;5.652;2022-09-09T07:46:08;16.60;99.90
43089;DHT22;28709;52.030;5.652;2022-09-09T07:48:34;16.60;99.90
43089;DHT22;28709;52.030;5.652;2022-09-09T07:51:11;16.60;99.90
43089;DHT22;28709;52.030;5.652;2022-09-09T07:53:40;16.70;99.90
43089;DHT22;28709;52.030;5.652;2022-09-09T07:56:11;16.70;99.90
43089;DHT22;28709;52.030;5.652;2022-09-09T07:58:39;16.70;99.90
43089;DHT22;28709;52.030;5.652;2022-09-09T08:01:10;16.70;99.90
43089;DHT22;28709;52.030;5.652;2022-09-09T08:03:37;16.70;99.90
43089;DHT22;28709;52.030;5.652;2022-09-09T08:06:04;16.70;99.90
43089;DHT22;28709;52.030;5.652;2022-09-09T08:08:32;16.70;99.90
43089;DHT22;28709;52.030;5.652;2022-09-09T08:11:25;16.70;99.90
43089;DHT22;28709;52.030;5.652;2022-09-09T08:13:52;16.70;99.90
43089;DHT22;28709;52.030;5.652;2022-09-09T08:16:28;16.80;99.90
43089;DHT22;28709;52.030;5.652;2022-09-09T08:18:56;16.70;99.90
43089;DHT22;28709;52.030;5.652;2022-09-09T08:21:24;16.70;99.90
43089;DHT22;28709;52.030;5.652;2022-09-09T08:23:52;16.80;99.90
43089;DHT22;28709;52.030;5.652;2022-09-09T08:26:26;16.70;99.90
43089;DHT22;28709;52.030;5.652;2022-09-09T08:28:54;16.80;99.90
43089;DHT22;28709;52.030;5.652;2022-09-09T08:33:50;16.80;99.90
43089;DHT22;28709;52.030;5.652;2022-09-09T08:36:18;16.80;99.90
43089;DHT22;28709;52.030;5.652;2022-09-09T08:38:51;16.80;99.90
43089;DHT22;28709;52.030;5.652;2022-09-09T08:41:59;16.90;99.90
43089;DHT22;28709;52.030;5.652;2022-09-09T08:53:02;16.90;99.90
43089;DHT22;28709;52.030;5.652;2022-09-09T08:58:21;16.90;99.90
43089;DHT22;28709;52.030;5.652;2022-09-09T09:03:56;17.00;99.90
43089;DHT22;28709;52.030;5.652;2022-09-09T09:11:27;17.20;99.90
43089;DHT22;28709;52.030;5.652;2022-09-09T09:16:33;17.30;99.90
43089;DHT22;28709;52.030;5.652;2022-09-09T09:19:00;17.30;99.90
43089;DHT22;28709;52.030;5.652;2022-09-09T09:21:42;17.40;99.90
43089;DHT22;28709;52.030;5.652;2022-09-09T09:24:37;17.40;99.90
43089;DHT22;28709;52.030;5.652;2022-09-09T09:27:16;17.40;99.90
43089;DHT22;28709;52.030;5.652;2022-09-09T09:29:44;17.40;99.90
43089;DHT22;28709;52.030;5.652;2022-09-09T09:32:16;17.40;99.90
43089;DHT22;28709;52.030;5.652;2022-09-09T09:34:51;17.40;99.90
43089;DHT22;28709;52.030;5.652;2022-09-09T09:37:30;17.40;99.90
43089;DHT22;28709;52.030;5.652;2022-09-09T09:42:36;17.50;99.90
43089;DHT22;28709;52.030;5.652;2022-09-09T09:48:01;17.50;99.90
43089;DHT22;28709;52.030;5.652;2022-09-09T09:50:28;17.50;99.90
43089;DHT22;28709;52.030;5.652;2022-09-09T09:53:24;17.60;99.90
43089;DHT22;28709;52.030;5.652;2022-09-09T09:56:03;17.60;99.90
43089;DHT22;28709;52.030;5.652;2022-09-09T09:58:38;17.60;99.90
43089;DHT22;28709;52.030;5.652;2022-09-09T10:03:51;17.70;99.90
43089;DHT22;28709;52.030;5.652;2022-09-09T10:06:28;17.70;99.90
43089;DHT22;28709;52.030;5.652;2022-09-09T10:08:54;17.80;99.90
43089;DHT22;28709;52.030;5.652;2022-09-09T10:11:44;17.70;99.90
43089;DHT22;28709;52.030;5.652;2022-09-09T10:19:34;17.70;99.90
43089;DHT22;28709;52.030;5.652;2022-09-09T10:27:25;17.70;99.90
43089;DHT22;28709;52.030;5.652;2022-09-09T10:30:19;17.70;99.90
43089;DHT22;28709;52.030;5.652;2022-09-09T10:35:52;17.70;99.90
43089;DHT22;28709;52.030;5.652;2022-09-09T10:38:39;17.70;99.90
43089;DHT22;28709;52.030;5.652;2022-09-09T10:41:29;17.70;99.90
43089;DHT22;28709;52.030;5.652;2022-09-09T10:50:05;16.60;99.90
43089;DHT22;28709;52.030;5.652;2022-09-09T10:52:59;16.20;99.90
43089;DHT22;28709;52.030;5.652;2022-09-09T10:56:01;16.00;99.90
43089;DHT22;28709;52.030;5.652;2022-09-09T10:58:56;15.90;99.90
43089;DHT22;28709;52.030;5.652;2022-09-09T11:04:15;15.90;99.90
43089;DHT22;28709;52.030;5.652;2022-09-09T11:06:46;16.00;99.90
43089;DHT22;28709;52.030;5.652;2022-09-09T11:09:16;16.00;99.90
43089;DHT22;28709;52.030;5.652;2022-09-09T11:11:53;16.00;99.90
43089;DHT22;28709;52.030;5.652;2022-09-09T11:14:25;16.10;99.90
43089;DHT22;28709;52.030;5.652;2022-09-09T11:17:01;16.30;99.90
43089;DHT22;28709;52.030;5.652;2022-09-09T11:19:41;16.40;99.90
43089;DHT22;28709;52.030;5.652;2022-09-09T11:28:00;16.30;99.90
43089;DHT22;28709;52.030;5.652;2022-09-09T11:35:58;16.30;99.90
43089;DHT22;28709;52.030;5.652;2022-09-09T11:38:28;16.50;99.90
43089;DHT22;28709;52.030;5.652;2022-09-09T11:41:15;16.70;99.90
43089;DHT22;28709;52.030;5.652;2022-09-09T11:43:46;16.90;99.90
43089;DHT22;28709;52.030;5.652;2022-09-09T11:46:15;17.10;99.90
43089;DHT22;28709;52.030;5.652;2022-09-09T11:48:58;17.00;99.90
43089;DHT22;28709;52.030;5.652;2022-09-09T11:53:54;17.10;99.90
43089;DHT22;28709;52.030;5.652;2022-09-09T11:56:26;17.10;99.90
43089;DHT22;28709;52.030;5.652;2022-09-09T11:59:00;17.10;99.90
43089;DHT22;28709;52.030;5.652;2022-09-09T12:01:38;17.20;99.90
43089;DHT22;28709;52.030;5.652;2022-09-09T12:07:03;17.30;99.90
43089;DHT22;28709;52.030;5.652;2022-09-09T12:09:48;17.30;99.90
43089;DHT22;28709;52.030;5.652;2022-09-09T12:12:34;17.30;99.90
43089;DHT22;28709;52.030;5.652;2022-09-09T12:17:45;17.10;99.90
43089;DHT22;28709;52.030;5.652;2022-09-09T12:20:31;17.10;99.90
43089;DHT22;28709;52.030;5.652;2022-09-09T12:23:33;17.10;99.90
43089;DHT22;28709;52.030;5.652;2022-09-09T12:31:38;17.00;99.90
43089;DHT22;28709;52.030;5.652;2022-09-09T12:37:57;17.00;99.90
43089;DHT22;28709;52.030;5.652;2022-09-09T12:42:44;17.50;99.90
43089;DHT22;28709;52.030;5.652;2022-09-09T12:45:23;17.60;99.90
43089;DHT22;28709;52.030;5.652;2022-09-09T12:50:20;17.70;99.90
43089;DHT22;28709;52.030;5.652;2022-09-09T12:52:49;17.60;99.90
43089;DHT22;28709;52.030;5.652;2022-09-09T12:55:24;17.70;99.90
43089;DHT22;28709;52.030;5.652;2022-09-09T12:57:51;17.70;99.90
43089;DHT22;28709;52.030;5.652;2022-09-09T13:00:23;17.70;99.90
43089;DHT22;28709;52.030;5.652;2022-09-09T13:02:53;17.70;99.90
43089;DHT22;28709;52.030;5.652;2022-09-09T13:05:28;17.70;99.90
43089;DHT22;28709;52.030;5.652;2022-09-09T13:08:06;17.70;99.90
43089;DHT22;28709;52.030;5.652;2022-09-09T13:10:36;17.70;99.90
43089;DHT22;28709;52.030;5.652;2022-09-09T13:13:13;17.80;99.90
43089;DHT22;28709;52.030;5.652;2022-09-09T13:15:39;17.70;99.90
43089;DHT22;28709;52.030;5.652;2022-09-09T13:18:10;17.70;99.90
43089;DHT22;28709;52.030;5.652;2022-09-09T13:20:36;17.70;99.90
43089;DHT22;28709;52.030;5.652;2022-09-09T13:23:02;17.70;99.90
43089;DHT22;28709;52.030;5.652;2022-09-09T13:25:29;17.70;99.90
43089;DHT22;28709;52.030;5.652;2022-09-09T13:28:05;17.70;99.90
43089;DHT22;28709;52.030;5.652;2022-09-09T13:30:35;17.80;99.90
43089;DHT22;28709;52.030;5.652;2022-09-09T13:35:35;17.90;99.90
43089;DHT22;28709;52.030;5.652;2022-09-09T13:38:16;17.80;99.90
43089;DHT22;28709;52.030;5.652;2022-09-09T13:41:05;17.90;99.90
43089;DHT22;28709;52.030;5.652;2022-09-09T13:43:36;18.00;99.90
43089;DHT22;28709;52.030;5.652;2022-09-09T13:46:04;18.10;99.90
43089;DHT22;28709;52.030;5.652;2022-09-09T13:48:31;18.20;99.90
43089;DHT22;28709;52.030;5.652;2022-09-09T13:51:03;18.30;99.90
43089;DHT22;28709;52.030;5.652;2022-09-09T13:53:31;18.40;99.90
43089;DHT22;28709;52.030;5.652;2022-09-09T13:55:57;18.60;99.90
43089;DHT22;28709;52.030;5.652;2022-09-09T13:58:24;18.70;99.90
43089;DHT22;28709;52.030;5.652;2022-09-09T14:00:51;18.80;99.90
43089;DHT22;28709;52.030;5.652;2022-09-09T14:03:17;18.80;99.90
43089;DHT22;28709;52.030;5.652;2022-09-09T14:05:44;18.70;99.90
43089;DHT22;28709;52.030;5.652;2022-09-09T14:08:16;18.70;99.90
43089;DHT22;28709;52.030;5.652;2022-09-09T14:10:44;18.70;99.90
43089;DHT22;28709;52.030;5.652;2022-09-09T14:13:10;18.70;99.90
43089;DHT22;28709;52.030;5.652;2022-09-09T14:15:38;18.70;99.90
43089;DHT22;28709;52.030;5.652;2022-09-09T14:18:03;18.70;99.90
43089;DHT22;28709;52.030;5.652;2022-09-09T14:20:29;18.70;99.90
43089;DHT22;28709;52.030;5.652;2022-09-09T14:22:55;18.70;99.90
43089;DHT22;28709;52.030;5.652;2022-09-09T14:25:24;18.70;99.90
43089;DHT22;28709;52.030;5.652;2022-09-09T14:27:49;18.70;99.90
43089;DHT22;28709;52.030;5.652;2022-09-09T14:30:16;18.70;99.90
43089;DHT22;28709;52.030;5.652;2022-09-09T14:32:42;18.60;99.90
43089;DHT22;28709;52.030;5.652;2022-09-09T14:35:08;18.70;99.90
43089;DHT22;28709;52.030;5.652;2022-09-09T14:37:34;18.70;99.90
43089;DHT22;28709;52.030;5.652;2022-09-09T14:40:00;18.70;99.90
43089;DHT22;28709;52.030;5.652;2022-09-09T14:42:26;18.70;99.90
43089;DHT22;28709;52.030;5.652;2022-09-09T14:44:52;18.70;99.90
43089;DHT22;28709;52.030;5.652;2022-09-09T14:47:17;18.70;99.90
43089;DHT22;28709;52.030;5.652;2022-09-09T14:49:43;18.70;99.90
43089;DHT22;28709;52.030;5.652;2022-09-09T14:52:09;18.70;99.90
43089;DHT22;28709;52.030;5.652;2022-09-09T14:54:35;18.70;99.90
43089;DHT22;28709;52.030;5.652;2022-09-09T14:57:01;18.70;99.90
43089;DHT22;28709;52.030;5.652;2022-09-09T14:59:27;18.70;99.90
43089;DHT22;28709;52.030;5.652;2022-09-09T15:01:53;18.70;99.90
43089;DHT22;28709;52.030;5.652;2022-09-09T15:04:18;18.70;99.90
43089;DHT22;28709;52.030;5.652;2022-09-09T15:06:45;18.70;99.90
43089;DHT22;28709;52.030;5.652;2022-09-09T15:09:14;18.80;99.90
43089;DHT22;28709;52.030;5.652;2022-09-09T15:11:40;18.90;99.90
43089;DHT22;28709;52.030;5.652;2022-09-09T15:14:07;19.00;99.90
43089;DHT22;28709;52.030;5.652;2022-09-09T15:16:33;19.10;99.90
43089;DHT22;28709;52.030;5.652;2022-09-09T15:19:01;19.10;99.90
43089;DHT22;28709;52.030;5.652;2022-09-09T15:21:32;19.10;99.90
43089;DHT22;28709;52.030;5.652;2022-09-09T15:23:58;19.00;99.90
43089;DHT22;28709;52.030;5.652;2022-09-09T15:26:25;19.00;99.90
43089;DHT22;28709;52.030;5.652;2022-09-09T15:28:52;19.00;99.90
43089;DHT22;28709;52.030;5.652;2022-09-09T15:31:25;19.00;99.90
43089;DHT22;28709;52.030;5.652;2022-09-09T15:34:06;18.90;99.90
43089;DHT22;28709;52.030;5.652;2022-09-09T15:36:33;18.90;99.90
43089;DHT22;28709;52.030;5.652;2022-09-09T15:39:00;18.90;99.90
43089;DHT22;28709;52.030;5.652;2022-09-09T15:41:26;18.80;99.90
43089;DHT22;28709;52.030;5.652;2022-09-09T15:43:55;18.80;99.90
43089;DHT22;28709;52.030;5.652;2022-09-09T15:46:31;18.80;99.90
43089;DHT22;28709;52.030;5.652;2022-09-09T15:49:03;18.90;99.90
43089;DHT22;28709;52.030;5.652;2022-09-09T15:51:29;19.00;99.90
43089;DHT22;28709;52.030;5.652;2022-09-09T15:53:56;19.10;99.90
43089;DHT22;28709;52.030;5.652;2022-09-09T15:56:24;19.10;99.90
43089;DHT22;28709;52.030;5.652;2022-09-09T15:58:49;19.20;99.90
43089;DHT22;28709;52.030;5.652;2022-09-09T16:01:15;19.10;99.90
43089;DHT22;28709;52.030;5.652;2022-09-09T16:03:42;19.10;99.90
43089;DHT22;28709;52.030;5.652;2022-09-09T16:06:10;19.10;99.90
43089;DHT22;28709;52.030;5.652;2022-09-09T16:08:38;19.10;99.90
43089;DHT22;28709;52.030;5.652;2022-09-09T16:11:07;19.00;99.90
43089;DHT22;28709;52.030;5.652;2022-09-09T16:13:39;19.00;99.90
43089;DHT22;28709;52.030;5.652;2022-09-09T16:16:06;19.00;99.90
43089;DHT22;28709;52.030;5.652;2022-09-09T16:18:44;18.90;99.90
43089;DHT22;28709;52.030;5.652;2022-09-09T16:21:15;18.90;99.90
43089;DHT22;28709;52.030;5.652;2022-09-09T16:23:41;18.80;99.90
43089;DHT22;28709;52.030;5.652;2022-09-09T16:26:10;18.70;99.90
43089;DHT22;28709;52.030;5.652;2022-09-09T16:28:36;18.60;99.90
43089;DHT22;28709;52.030;5.652;2022-09-09T16:31:05;18.60;99.90
43089;DHT22;28709;52.030;5.652;2022-09-09T16:33:31;18.60;99.90
43089;DHT22;28709;52.030;5.652;2022-09-09T16:35:57;18.60;99.90
43089;DHT22;28709;52.030;5.652;2022-09-09T16:38:22;18.60;99.90
43089;DHT22;28709;52.030;5.652;2022-09-09T16:40:48;18.60;99.90
43089;DHT22;28709;52.030;5.652;2022-09-09T16:43:15;18.60;99.90
43089;DHT22;28709;52.030;5.652;2022-09-09T16:45:44;18.50;99.90
43089;DHT22;28709;52.030;5.652;2022-09-09T16:48:10;18.60;99.90
43089;DHT22;28709;52.030;5.652;2022-09-09T16:50:36;18.60;99.90
43089;DHT22;28709;52.030;5.652;2022-09-09T16:53:02;18.60;99.90
43089;DHT22;28709;52.030;5.652;2022-09-09T16:55:37;18.60;99.90
43089;DHT22;28709;52.030;5.652;2022-09-09T16:58:03;18.60;99.90
43089;DHT22;28709;52.030;5.652;2022-09-09T17:00:29;18.60;99.90
43089;DHT22;28709;52.030;5.652;2022-09-09T17:02:54;18.70;99.90
43089;DHT22;28709;52.030;5.652;2022-09-09T17:05:20;18.70;99.90
43089;DHT22;28709;52.030;5.652;2022-09-09T17:07:46;18.70;99.90
43089;DHT22;28709;52.030;5.652;2022-09-09T17:10:11;18.70;99.90
43089;DHT22;28709;52.030;5.652;2022-09-09T17:12:37;18.70;99.90
43089;DHT22;28709;52.030;5.652;2022-09-09T17:15:03;18.70;99.90
43089;DHT22;28709;52.030;5.652;2022-09-09T17:17:29;18.60;99.90
43089;DHT22;28709;52.030;5.652;2022-09-09T17:19:54;18.60;99.90
43089;DHT22;28709;52.030;5.652;2022-09-09T17:22:20;18.60;99.90
43089;DHT22;28709;52.030;5.652;2022-09-09T17:24:46;18.50;99.90
43089;DHT22;28709;52.030;5.652;2022-09-09T17:27:13;18.50;99.90
43089;DHT22;28709;52.030;5.652;2022-09-09T17:29:39;18.50;99.90
43089;DHT22;28709;52.030;5.652;2022-09-09T17:32:05;18.50;99.90
43089;DHT22;28709;52.030;5.652;2022-09-09T17:34:33;18.40;99.90
43089;DHT22;28709;52.030;5.652;2022-09-09T17:36:59;18.20;99.90
43089;DHT22;28709;52.030;5.652;2022-09-09T17:39:25;18.20;99.90
43089;DHT22;28709;52.030;5.652;2022-09-09T17:41:51;18.10;99.90
43089;DHT22;28709;52.030;5.652;2022-09-09T17:44:17;18.10;99.90
43089;DHT22;28709;52.030;5.652;2022-09-09T17:46:45;18.00;99.90
43089;DHT22;28709;52.030;5.652;2022-09-09T17:49:14;17.90;99.90
43089;DHT22;28709;52.030;5.652;2022-09-09T17:51:41;17.90;99.90
43089;DHT22;28709;52.030;5.652;2022-09-09T17:54:10;17.80;99.90
43089;DHT22;28709;52.030;5.652;2022-09-09T17:56:37;17.90;99.90
43089;DHT22;28709;52.030;5.652;2022-09-09T17:59:05;17.70;99.90
43089;DHT22;28709;52.030;5.652;2022-09-09T18:01:34;17.70;99.90
43089;DHT22;28709;52.030;5.652;2022-09-09T18:04:02;17.70;99.90
43089;DHT22;28709;52.030;5.652;2022-09-09T18:06:33;17.60;99.90
43089;DHT22;28709;52.030;5.652;2022-09-09T18:09:03;17.60;99.90